• Join FlightAware (Why Join?)
  • Login
  • US Flag 
09:25PM EDT


 

Airport Tracker/Info


-or-


 

Live Flight TrackerFlight Track Log ✈ GUJ160 ✈ 04-May-2012 ✈ VILH / IXL - VIDP / DEL

Flight Track Log - Related Links

Times and Time Zones

All times are in EDT time to prevent confusion due to time zone crossing. See the GUJ160 flight status page for this flight to view local times or setup timezone preferences in your user account.

Time Position Orientation Groundspeed Altitude Reporting Facility
EDT Latitude Longitude Course Direction KTS MPH feet Rate Location/Type
09:52PM 32.5351 77.4130 184° South  Level Estimated
09:53PM 32.4423 77.4054 184° South  Level Estimated
09:54PM 32.3495 77.3979 184° South  Level Estimated
09:55PM 32.2567 77.3904 184° South  Level Estimated
09:56PM 32.1640 77.3829 184° South  Level Estimated
09:57PM 32.0712 77.3754 184° South  Level Estimated
09:58PM 31.9784 77.3679 184° South  Level Estimated
09:59PM 31.8856 77.3605 184° South  Level Estimated
10:00PM 31.7928 77.3530 184° South  Level Estimated
10:01PM 31.7000 77.3456 184° South  Level Estimated
10:02PM 31.6072 77.3382 184° South  Level Estimated
10:03PM 31.5144 77.3308 184° South  Level Estimated
10:04PM 31.4216 77.3234 184° South  Level Estimated
10:05PM 31.3288 77.3160 184° South  Level Estimated
10:06PM 31.2360 77.3087 184° South  Level Estimated
10:07PM 31.1432 77.3014 184° South  Level Estimated
10:08PM 31.0504 77.2940 184° South  Level Estimated
10:09PM 30.9576 77.2867 184° South  Level Estimated
10:10PM 30.8648 77.2794 184° South  Level Estimated
10:11PM 30.7720 77.2721 184° South  Level Estimated
10:12PM 30.6792 77.2649 184° South  Level Estimated
10:13PM 30.5864 77.2576 184° South  Level Estimated
10:14PM 30.4936 77.2504 184° South  Level Estimated
10:15PM 30.4008 77.2432 184° South  Level Estimated
10:16PM 30.3080 77.2359 184° South  Level Estimated
10:17PM 30.2152 77.2288 184° South  Level Estimated
10:18PM 30.1224 77.2216 184° South  Level Estimated
10:19PM 30.0296 77.2144 184° South  Level Estimated
10:20PM 29.9368 77.2072 184° South  Level Estimated
10:21PM 29.8440 77.2001 184° South  Level Estimated
10:22PM 29.7512 77.1930 184° South  Level Estimated
10:23PM 29.6583 77.1859 184° South  Level Estimated
10:24PM 29.5655 77.1787 184° South  Level Estimated
10:25PM 29.4727 77.1717 184° South  Level Estimated
10:26PM 29.3799 77.1646 184° South  Level Estimated
10:27PM 29.2871 77.1575 184° South  Level Estimated
10:28PM 29.1943 77.1505 184° South  Level Estimated
10:29PM 29.1015 77.1434 184° South  Level Estimated
10:30PM 29.0087 77.1364 184° South  Level Estimated
10:31PM 28.9159 77.1294 184° South  Level Estimated
10:32PM 28.8230 77.1224 184° South  Level Estimated
10:33PM 28.7302 77.1154 184° South  Level Estimated
10:34PM 28.6374 77.1084 184° South  Level Estimated
10:35PM 28.5446 77.1014 North  Level Estimated
10:36PM 28.6374 77.1084 184° South  Level Estimated
10:37PM 28.5446 77.1014 North  Level Estimated
10:38PM 28.6374 77.1084 184° South  Level Estimated
10:39PM 28.5446 77.1014 North  Level Estimated
10:40PM 28.6374 77.1084 184° South  Level Estimated
10:41PM 28.5446 77.1014 North  Level Estimated
10:42PM 28.6374 77.1084 184° South  Level Estimated
10:43PM 28.5446 77.1014 North  Level Estimated
10:44PM 28.6374 77.1084 184° South  Level Estimated
10:45PM 28.5446 77.1014 North  Level Estimated
10:46PM 28.6374 77.1084 184° South  Level Estimated
10:47PM 28.5446 77.1014 North  Level Estimated
10:48PM 28.6374 77.1084 184° South  Level Estimated
10:49PM 28.5446 77.1014 North  Level Estimated
10:50PM 28.6374 77.1084 North  Level Estimated